sensor_id;sensor_type;location;lat;lon;timestamp;temperature;humidity
66608;DHT22;53462;39.616;8.824;2022-11-03T00:00:54;17.10;99.90
66608;DHT22;53462;39.616;8.824;2022-11-03T00:03:20;17.10;99.90
66608;DHT22;53462;39.616;8.824;2022-11-03T00:05:45;17.10;99.90
66608;DHT22;53462;39.616;8.824;2022-11-03T00:08:30;17.00;99.90
66608;DHT22;53462;39.616;8.824;2022-11-03T00:11:10;17.00;99.90
66608;DHT22;53462;39.616;8.824;2022-11-03T00:13:38;17.10;99.90
66608;DHT22;53462;39.616;8.824;2022-11-03T00:16:06;17.10;99.90
66608;DHT22;53462;39.616;8.824;2022-11-03T00:18:32;17.10;99.90
66608;DHT22;53462;39.616;8.824;2022-11-03T00:21:04;17.00;99.90
66608;DHT22;53462;39.616;8.824;2022-11-03T00:23:33;16.90;99.50
66608;DHT22;53462;39.616;8.824;2022-11-03T00:28:31;16.90;99.50
66608;DHT22;53462;39.616;8.824;2022-11-03T00:30:58;17.00;99.60
66608;DHT22;53462;39.616;8.824;2022-11-03T00:33:24;17.00;99.20
66608;DHT22;53462;39.616;8.824;2022-11-03T00:35:58;17.00;99.30
66608;DHT22;53462;39.616;8.824;2022-11-03T00:38:29;17.00;99.50
66608;DHT22;53462;39.616;8.824;2022-11-03T00:40:57;16.90;99.90
66608;DHT22;53462;39.616;8.824;2022-11-03T00:43:24;16.90;99.90
66608;DHT22;53462;39.616;8.824;2022-11-03T00:45:51;16.60;99.90
66608;DHT22;53462;39.616;8.824;2022-11-03T00:48:18;16.60;99.90
66608;DHT22;53462;39.616;8.824;2022-11-03T00:51:15;16.60;99.90
66608;DHT22;53462;39.616;8.824;2022-11-03T00:53:44;16.70;99.90
66608;DHT22;53462;39.616;8.824;2022-11-03T00:56:12;16.90;99.90
66608;DHT22;53462;39.616;8.824;2022-11-03T00:58:39;16.90;99.90
66608;DHT22;53462;39.616;8.824;2022-11-03T01:01:11;16.90;99.90
66608;DHT22;53462;39.616;8.824;2022-11-03T01:03:38;16.90;99.90
66608;DHT22;53462;39.616;8.824;2022-11-03T01:06:10;16.80;99.90
66608;DHT22;53462;39.616;8.824;2022-11-03T01:08:55;16.70;99.90
66608;DHT22;53462;39.616;8.824;2022-11-03T01:11:23;16.60;99.90
66608;DHT22;53462;39.616;8.824;2022-11-03T01:14:10;16.50;99.90
66608;DHT22;53462;39.616;8.824;2022-11-03T01:16:36;16.40;99.90
66608;DHT22;53462;39.616;8.824;2022-11-03T01:19:03;16.20;99.90
66608;DHT22;53462;39.616;8.824;2022-11-03T01:21:34;16.20;99.90
66608;DHT22;53462;39.616;8.824;2022-11-03T01:24:01;16.40;99.90
66608;DHT22;53462;39.616;8.824;2022-11-03T01:26:28;16.30;99.90
66608;DHT22;53462;39.616;8.824;2022-11-03T01:28:54;16.40;99.90
66608;DHT22;53462;39.616;8.824;2022-11-03T01:31:22;16.30;99.90
66608;DHT22;53462;39.616;8.824;2022-11-03T01:33:50;16.30;99.90
66608;DHT22;53462;39.616;8.824;2022-11-03T01:36:17;16.00;99.90
66608;DHT22;53462;39.616;8.824;2022-11-03T01:38:43;16.00;99.90
66608;DHT22;53462;39.616;8.824;2022-11-03T01:41:22;15.90;99.90
66608;DHT22;53462;39.616;8.824;2022-11-03T01:46:54;15.90;99.90
66608;DHT22;53462;39.616;8.824;2022-11-03T01:52:35;15.50;99.90
66608;DHT22;53462;39.616;8.824;2022-11-03T01:55:10;15.20;99.90
66608;DHT22;53462;39.616;8.824;2022-11-03T01:57:48;15.20;99.90
66608;DHT22;53462;39.616;8.824;2022-11-03T02:00:14;15.30;99.90
66608;DHT22;53462;39.616;8.824;2022-11-03T02:02:42;15.30;99.90
66608;DHT22;53462;39.616;8.824;2022-11-03T02:05:09;15.40;99.90
66608;DHT22;53462;39.616;8.824;2022-11-03T02:07:47;15.60;99.90
66608;DHT22;53462;39.616;8.824;2022-11-03T02:10:14;15.60;99.90
66608;DHT22;53462;39.616;8.824;2022-11-03T02:12:41;15.70;99.90
66608;DHT22;53462;39.616;8.824;2022-11-03T02:15:11;15.80;99.90
66608;DHT22;53462;39.616;8.824;2022-11-03T02:17:39;15.90;99.90
66608;DHT22;53462;39.616;8.824;2022-11-03T02:20:11;16.00;99.90
66608;DHT22;53462;39.616;8.824;2022-11-03T02:25:58;16.10;99.90
66608;DHT22;53462;39.616;8.824;2022-11-03T02:28:27;16.10;99.90
66608;DHT22;53462;39.616;8.824;2022-11-03T02:31:11;16.00;99.90
66608;DHT22;53462;39.616;8.824;2022-11-03T02:33:48;16.00;99.90
66608;DHT22;53462;39.616;8.824;2022-11-03T02:36:22;16.00;99.90
66608;DHT22;53462;39.616;8.824;2022-11-03T02:39:06;16.00;99.90
66608;DHT22;53462;39.616;8.824;2022-11-03T02:41:36;16.00;99.90
66608;DHT22;53462;39.616;8.824;2022-11-03T02:44:05;16.00;99.90
66608;DHT22;53462;39.616;8.824;2022-11-03T02:46:33;16.00;99.90
66608;DHT22;53462;39.616;8.824;2022-11-03T02:49:01;16.00;99.90
66608;DHT22;53462;39.616;8.824;2022-11-03T02:51:27;15.90;99.90
66608;DHT22;53462;39.616;8.824;2022-11-03T02:54:18;15.90;99.90
66608;DHT22;53462;39.616;8.824;2022-11-03T02:56:50;16.10;99.90
66608;DHT22;53462;39.616;8.824;2022-11-03T02:59:24;16.00;99.90
66608;DHT22;53462;39.616;8.824;2022-11-03T03:02:02;16.00;99.90
66608;DHT22;53462;39.616;8.824;2022-11-03T03:04:38;16.00;99.90
66608;DHT22;53462;39.616;8.824;2022-11-03T03:07:07;15.90;99.90
66608;DHT22;53462;39.616;8.824;2022-11-03T03:12:16;15.90;99.90
66608;DHT22;53462;39.616;8.824;2022-11-03T03:14:44;15.80;99.90
66608;DHT22;53462;39.616;8.824;2022-11-03T03:20:04;15.80;99.90
66608;DHT22;53462;39.616;8.824;2022-11-03T03:22:45;15.70;99.90
66608;DHT22;53462;39.616;8.824;2022-11-03T03:25:37;15.70;99.90
66608;DHT22;53462;39.616;8.824;2022-11-03T03:28:10;15.50;99.90
66608;DHT22;53462;39.616;8.824;2022-11-03T03:30:38;15.50;99.90
66608;DHT22;53462;39.616;8.824;2022-11-03T03:33:07;15.40;99.90
66608;DHT22;53462;39.616;8.824;2022-11-03T03:35:37;15.30;99.90
66608;DHT22;53462;39.616;8.824;2022-11-03T03:38:10;15.50;99.90
66608;DHT22;53462;39.616;8.824;2022-11-03T03:40:40;15.70;99.90
66608;DHT22;53462;39.616;8.824;2022-11-03T03:43:10;15.80;99.90
66608;DHT22;53462;39.616;8.824;2022-11-03T03:45:38;15.80;99.90
66608;DHT22;53462;39.616;8.824;2022-11-03T03:48:05;15.90;99.90
66608;DHT22;53462;39.616;8.824;2022-11-03T03:50:34;15.90;99.90
66608;DHT22;53462;39.616;8.824;2022-11-03T03:53:03;15.80;99.90
66608;DHT22;53462;39.616;8.824;2022-11-03T03:55:38;15.90;99.90
66608;DHT22;53462;39.616;8.824;2022-11-03T03:58:05;15.90;99.90
66608;DHT22;53462;39.616;8.824;2022-11-03T04:00:32;16.00;99.90
66608;DHT22;53462;39.616;8.824;2022-11-03T04:02:58;15.90;99.90
66608;DHT22;53462;39.616;8.824;2022-11-03T04:05:25;16.00;99.90
66608;DHT22;53462;39.616;8.824;2022-11-03T04:07:51;16.00;99.90
66608;DHT22;53462;39.616;8.824;2022-11-03T04:10:19;16.00;99.90
66608;DHT22;53462;39.616;8.824;2022-11-03T04:12:46;16.00;99.90
66608;DHT22;53462;39.616;8.824;2022-11-03T04:15:31;16.10;99.90
66608;DHT22;53462;39.616;8.824;2022-11-03T04:18:19;16.20;99.90
66608;DHT22;53462;39.616;8.824;2022-11-03T04:21:05;16.40;99.90
66608;DHT22;53462;39.616;8.824;2022-11-03T04:24:01;16.40;99.90
66608;DHT22;53462;39.616;8.824;2022-11-03T04:26:27;16.20;99.90
66608;DHT22;53462;39.616;8.824;2022-11-03T04:28:54;16.10;99.90
66608;DHT22;53462;39.616;8.824;2022-11-03T04:31:21;15.80;99.90
66608;DHT22;53462;39.616;8.824;2022-11-03T04:33:47;15.60;99.90
66608;DHT22;53462;39.616;8.824;2022-11-03T04:36:19;15.50;99.90
66608;DHT22;53462;39.616;8.824;2022-11-03T04:38:47;15.40;99.90
66608;DHT22;53462;39.616;8.824;2022-11-03T04:41:30;15.50;99.90
66608;DHT22;53462;39.616;8.824;2022-11-03T04:43:57;15.60;99.90
66608;DHT22;53462;39.616;8.824;2022-11-03T04:46:28;15.50;99.90
66608;DHT22;53462;39.616;8.824;2022-11-03T04:48:57;15.60;99.90
66608;DHT22;53462;39.616;8.824;2022-11-03T04:51:26;15.70;99.90
66608;DHT22;53462;39.616;8.824;2022-11-03T04:53:55;15.60;99.90
66608;DHT22;53462;39.616;8.824;2022-11-03T04:56:24;15.60;99.90
66608;DHT22;53462;39.616;8.824;2022-11-03T04:58:51;15.70;99.90
66608;DHT22;53462;39.616;8.824;2022-11-03T05:01:19;15.60;99.90
66608;DHT22;53462;39.616;8.824;2022-11-03T05:03:48;15.50;99.90
66608;DHT22;53462;39.616;8.824;2022-11-03T05:08:44;15.20;99.90
66608;DHT22;53462;39.616;8.824;2022-11-03T05:11:16;15.20;99.90
66608;DHT22;53462;39.616;8.824;2022-11-03T05:13:43;15.20;99.90
66608;DHT22;53462;39.616;8.824;2022-11-03T05:16:10;15.20;99.90
66608;DHT22;53462;39.616;8.824;2022-11-03T05:18:41;15.20;99.90
66608;DHT22;53462;39.616;8.824;2022-11-03T05:21:13;15.10;99.90
66608;DHT22;53462;39.616;8.824;2022-11-03T05:23:43;15.10;99.90
66608;DHT22;53462;39.616;8.824;2022-11-03T05:26:21;15.00;99.90
66608;DHT22;53462;39.616;8.824;2022-11-03T05:28:51;14.90;99.90
66608;DHT22;53462;39.616;8.824;2022-11-03T05:33:43;14.90;99.90
66608;DHT22;53462;39.616;8.824;2022-11-03T05:36:19;15.00;99.90
66608;DHT22;53462;39.616;8.824;2022-11-03T05:38:46;15.10;99.90
66608;DHT22;53462;39.616;8.824;2022-11-03T05:41:20;15.20;99.90
66608;DHT22;53462;39.616;8.824;2022-11-03T05:44:39;15.20;99.90
66608;DHT22;53462;39.616;8.824;2022-11-03T05:46:46;15.20;99.90
66608;DHT22;53462;39.616;8.824;2022-11-03T05:49:12;15.30;99.90
66608;DHT22;53462;39.616;8.824;2022-11-03T05:51:40;15.00;99.90
66608;DHT22;53462;39.616;8.824;2022-11-03T05:54:30;14.80;99.90
66608;DHT22;53462;39.616;8.824;2022-11-03T05:56:57;14.80;99.90
66608;DHT22;53462;39.616;8.824;2022-11-03T05:59:26;14.80;99.90
66608;DHT22;53462;39.616;8.824;2022-11-03T06:01:53;14.70;99.90
66608;DHT22;53462;39.616;8.824;2022-11-03T06:04:32;14.90;99.90
66608;DHT22;53462;39.616;8.824;2022-11-03T06:07:22;14.90;99.90
66608;DHT22;53462;39.616;8.824;2022-11-03T06:09:51;15.20;99.90
66608;DHT22;53462;39.616;8.824;2022-11-03T06:12:19;15.30;99.90
66608;DHT22;53462;39.616;8.824;2022-11-03T06:14:45;15.30;99.90
66608;DHT22;53462;39.616;8.824;2022-11-03T06:17:21;15.50;99.90
66608;DHT22;53462;39.616;8.824;2022-11-03T06:19:49;15.60;99.90
66608;DHT22;53462;39.616;8.824;2022-11-03T06:22:35;15.60;99.90
66608;DHT22;53462;39.616;8.824;2022-11-03T06:27:45;16.00;99.90
66608;DHT22;53462;39.616;8.824;2022-11-03T06:30:27;16.30;99.90
66608;DHT22;53462;39.616;8.824;2022-11-03T06:32:57;16.40;99.90
66608;DHT22;53462;39.616;8.824;2022-11-03T06:35:23;16.50;99.90
66608;DHT22;53462;39.616;8.824;2022-11-03T06:37:49;16.70;99.90
66608;DHT22;53462;39.616;8.824;2022-11-03T06:42:42;17.10;99.90
66608;DHT22;53462;39.616;8.824;2022-11-03T06:45:22;17.20;99.30
66608;DHT22;53462;39.616;8.824;2022-11-03T06:47:50;17.40;97.90
66608;DHT22;53462;39.616;8.824;2022-11-03T06:50:30;17.60;96.00
66608;DHT22;53462;39.616;8.824;2022-11-03T06:52:58;17.80;94.40
66608;DHT22;53462;39.616;8.824;2022-11-03T06:55:29;17.90;92.40
66608;DHT22;53462;39.616;8.824;2022-11-03T06:58:13;18.30;90.90
66608;DHT22;53462;39.616;8.824;2022-11-03T07:00:39;18.80;87.70
66608;DHT22;53462;39.616;8.824;2022-11-03T07:05:39;19.00;81.60
66608;DHT22;53462;39.616;8.824;2022-11-03T07:08:35;18.50;84.40
66608;DHT22;53462;39.616;8.824;2022-11-03T07:11:19;18.50;84.90
66608;DHT22;53462;39.616;8.824;2022-11-03T07:13:51;18.80;83.60
66608;DHT22;53462;39.616;8.824;2022-11-03T07:16:26;19.90;79.40
66608;DHT22;53462;39.616;8.824;2022-11-03T07:18:53;20.00;75.90
66608;DHT22;53462;39.616;8.824;2022-11-03T07:21:30;20.10;76.80
66608;DHT22;53462;39.616;8.824;2022-11-03T07:24:05;19.70;77.20
66608;DHT22;53462;39.616;8.824;2022-11-03T07:26:36;19.60;78.10
66608;DHT22;53462;39.616;8.824;2022-11-03T07:29:02;19.50;79.00
66608;DHT22;53462;39.616;8.824;2022-11-03T07:31:30;20.60;78.70
66608;DHT22;53462;39.616;8.824;2022-11-03T07:33:57;22.90;70.10
66608;DHT22;53462;39.616;8.824;2022-11-03T07:36:26;24.10;64.30
66608;DHT22;53462;39.616;8.824;2022-11-03T07:38:55;24.90;60.50
66608;DHT22;53462;39.616;8.824;2022-11-03T07:41:27;25.20;59.50
66608;DHT22;53462;39.616;8.824;2022-11-03T07:43:58;25.30;59.60
66608;DHT22;53462;39.616;8.824;2022-11-03T07:46:24;25.50;57.90
66608;DHT22;53462;39.616;8.824;2022-11-03T07:48:54;26.10;57.50
66608;DHT22;53462;39.616;8.824;2022-11-03T07:51:33;26.50;56.70
66608;DHT22;53462;39.616;8.824;2022-11-03T07:54:18;25.80;56.90
66608;DHT22;53462;39.616;8.824;2022-11-03T07:56:59;27.10;55.10
66608;DHT22;53462;39.616;8.824;2022-11-03T07:59:37;26.90;54.60
66608;DHT22;53462;39.616;8.824;2022-11-03T08:05:07;27.20;53.30
66608;DHT22;53462;39.616;8.824;2022-11-03T08:07:33;27.00;54.40
66608;DHT22;53462;39.616;8.824;2022-11-03T08:09:59;26.90;54.20
66608;DHT22;53462;39.616;8.824;2022-11-03T08:12:25;27.40;53.30
66608;DHT22;53462;39.616;8.824;2022-11-03T08:14:51;27.60;53.10
66608;DHT22;53462;39.616;8.824;2022-11-03T08:17:17;28.10;52.40
66608;DHT22;53462;39.616;8.824;2022-11-03T08:19:43;27.50;52.30
66608;DHT22;53462;39.616;8.824;2022-11-03T08:22:09;27.70;53.40
66608;DHT22;53462;39.616;8.824;2022-11-03T08:24:35;27.60;52.70
66608;DHT22;53462;39.616;8.824;2022-11-03T08:27:01;27.50;53.10
66608;DHT22;53462;39.616;8.824;2022-11-03T08:29:28;27.70;52.80
66608;DHT22;53462;39.616;8.824;2022-11-03T08:31:54;27.80;52.50
66608;DHT22;53462;39.616;8.824;2022-11-03T08:34:20;27.90;53.20
66608;DHT22;53462;39.616;8.824;2022-11-03T08:36:46;28.10;52.80
66608;DHT22;53462;39.616;8.824;2022-11-03T08:39:12;27.90;52.90
66608;DHT22;53462;39.616;8.824;2022-11-03T08:41:38;28.20;52.30
66608;DHT22;53462;39.616;8.824;2022-11-03T08:44:04;27.70;53.00
66608;DHT22;53462;39.616;8.824;2022-11-03T08:46:30;27.70;52.90
66608;DHT22;53462;39.616;8.824;2022-11-03T08:48:57;28.20;52.60
66608;DHT22;53462;39.616;8.824;2022-11-03T08:51:23;28.70;50.30
66608;DHT22;53462;39.616;8.824;2022-11-03T08:53:49;28.50;51.50
66608;DHT22;53462;39.616;8.824;2022-11-03T08:56:19;28.80;50.50
66608;DHT22;53462;39.616;8.824;2022-11-03T08:58:46;28.70;51.30
66608;DHT22;53462;39.616;8.824;2022-11-03T09:01:12;27.90;52.70
66608;DHT22;53462;39.616;8.824;2022-11-03T09:03:39;28.10;51.80
66608;DHT22;53462;39.616;8.824;2022-11-03T09:06:06;28.50;51.70
66608;DHT22;53462;39.616;8.824;2022-11-03T09:08:32;28.50;51.30
66608;DHT22;53462;39.616;8.824;2022-11-03T09:10:58;28.90;50.60
66608;DHT22;53462;39.616;8.824;2022-11-03T09:13:24;28.60;51.30
66608;DHT22;53462;39.616;8.824;2022-11-03T09:15:50;29.30;50.00
66608;DHT22;53462;39.616;8.824;2022-11-03T09:18:16;29.40;49.40
66608;DHT22;53462;39.616;8.824;2022-11-03T09:20:42;28.80;50.90
66608;DHT22;53462;39.616;8.824;2022-11-03T09:23:08;29.00;50.80
66608;DHT22;53462;39.616;8.824;2022-11-03T09:25:34;29.00;50.70
66608;DHT22;53462;39.616;8.824;2022-11-03T09:28:00;28.80;51.10
66608;DHT22;53462;39.616;8.824;2022-11-03T09:30:26;28.40;52.80
66608;DHT22;53462;39.616;8.824;2022-11-03T09:32:53;28.80;52.30
66608;DHT22;53462;39.616;8.824;2022-11-03T09:35:19;28.20;54.50
66608;DHT22;53462;39.616;8.824;2022-11-03T09:37:45;29.20;51.80
66608;DHT22;53462;39.616;8.824;2022-11-03T09:40:14;29.40;51.10
66608;DHT22;53462;39.616;8.824;2022-11-03T09:42:41;29.20;52.30
66608;DHT22;53462;39.616;8.824;2022-11-03T09:45:08;30.00;50.50
66608;DHT22;53462;39.616;8.824;2022-11-03T09:47:39;28.90;53.00
66608;DHT22;53462;39.616;8.824;2022-11-03T09:50:12;29.90;50.80
66608;DHT22;53462;39.616;8.824;2022-11-03T09:52:39;29.60;51.40
66608;DHT22;53462;39.616;8.824;2022-11-03T09:55:12;29.10;52.00
66608;DHT22;53462;39.616;8.824;2022-11-03T09:57:40;29.30;51.90
66608;DHT22;53462;39.616;8.824;2022-11-03T10:00:21;29.10;52.00
66608;DHT22;53462;39.616;8.824;2022-11-03T10:02:48;28.70;53.20
66608;DHT22;53462;39.616;8.824;2022-11-03T10:05:18;28.00;54.20
66608;DHT22;53462;39.616;8.824;2022-11-03T10:07:45;26.70;56.80
66608;DHT22;53462;39.616;8.824;2022-11-03T10:10:17;26.40;58.40
66608;DHT22;53462;39.616;8.824;2022-11-03T10:12:44;25.80;60.00
66608;DHT22;53462;39.616;8.824;2022-11-03T10:15:18;26.00;60.50
66608;DHT22;53462;39.616;8.824;2022-11-03T10:17:45;25.80;60.70
66608;DHT22;53462;39.616;8.824;2022-11-03T10:20:13;25.80;60.90
66608;DHT22;53462;39.616;8.824;2022-11-03T10:22:41;25.70;62.60
66608;DHT22;53462;39.616;8.824;2022-11-03T10:28:12;25.30;63.90
66608;DHT22;53462;39.616;8.824;2022-11-03T10:30:55;25.50;62.50
66608;DHT22;53462;39.616;8.824;2022-11-03T10:33:52;25.50;62.10
66608;DHT22;53462;39.616;8.824;2022-11-03T10:38:46;25.80;62.50
66608;DHT22;53462;39.616;8.824;2022-11-03T10:41:23;25.50;61.80
66608;DHT22;53462;39.616;8.824;2022-11-03T10:44:07;25.60;61.80
66608;DHT22;53462;39.616;8.824;2022-11-03T10:46:57;25.70;61.00
66608;DHT22;53462;39.616;8.824;2022-11-03T10:49:24;25.60;61.70
66608;DHT22;53462;39.616;8.824;2022-11-03T10:51:53;25.90;61.80
66608;DHT22;53462;39.616;8.824;2022-11-03T10:54:22;26.10;61.90
66608;DHT22;53462;39.616;8.824;2022-11-03T10:56:49;25.70;63.00
66608;DHT22;53462;39.616;8.824;2022-11-03T10:59:22;26.10;61.90
66608;DHT22;53462;39.616;8.824;2022-11-03T11:01:49;25.70;63.20
66608;DHT22;53462;39.616;8.824;2022-11-03T11:04:19;25.90;61.60
66608;DHT22;53462;39.616;8.824;2022-11-03T11:06:45;26.00;60.80
66608;DHT22;53462;39.616;8.824;2022-11-03T11:09:14;25.90;61.60
66608;DHT22;53462;39.616;8.824;2022-11-03T11:12:01;25.50;62.20
66608;DHT22;53462;39.616;8.824;2022-11-03T11:16:58;25.70;61.40
66608;DHT22;53462;39.616;8.824;2022-11-03T11:19:25;25.90;61.30
66608;DHT22;53462;39.616;8.824;2022-11-03T11:30:54;26.00;61.70
66608;DHT22;53462;39.616;8.824;2022-11-03T11:32:57;26.10;61.50
66608;DHT22;53462;39.616;8.824;2022-11-03T11:37:51;26.10;56.90
66608;DHT22;53462;39.616;8.824;2022-11-03T11:48:31;26.30;54.50
66608;DHT22;53462;39.616;8.824;2022-11-03T11:50:59;25.80;53.40
66608;DHT22;53462;39.616;8.824;2022-11-03T11:53:26;26.10;53.10
66608;DHT22;53462;39.616;8.824;2022-11-03T11:55:57;26.10;51.80
66608;DHT22;53462;39.616;8.824;2022-11-03T12:01:31;26.00;56.20
66608;DHT22;53462;39.616;8.824;2022-11-03T12:04:00;26.00;53.40
66608;DHT22;53462;39.616;8.824;2022-11-03T12:06:38;26.00;50.20
66608;DHT22;53462;39.616;8.824;2022-11-03T12:09:25;26.10;51.40
66608;DHT22;53462;39.616;8.824;2022-11-03T12:11:57;26.50;51.10
66608;DHT22;53462;39.616;8.824;2022-11-03T12:14:31;26.30;49.50
66608;DHT22;53462;39.616;8.824;2022-11-03T12:17:29;26.40;50.10
66608;DHT22;53462;39.616;8.824;2022-11-03T12:19:52;26.30;49.50
66608;DHT22;53462;39.616;8.824;2022-11-03T12:24:57;26.20;47.00
66608;DHT22;53462;39.616;8.824;2022-11-03T12:29:56;26.20;49.50
66608;DHT22;53462;39.616;8.824;2022-11-03T12:32:23;26.70;49.70
66608;DHT22;53462;39.616;8.824;2022-11-03T12:34:49;26.50;46.60
66608;DHT22;53462;39.616;8.824;2022-11-03T12:37:15;26.30;48.30
66608;DHT22;53462;39.616;8.824;2022-11-03T12:39:41;26.00;47.60
66608;DHT22;53462;39.616;8.824;2022-11-03T12:42:08;26.00;49.00
66608;DHT22;53462;39.616;8.824;2022-11-03T12:44:34;26.00;49.90
66608;DHT22;53462;39.616;8.824;2022-11-03T12:46:59;26.30;48.20
66608;DHT22;53462;39.616;8.824;2022-11-03T12:49:28;26.10;48.80
66608;DHT22;53462;39.616;8.824;2022-11-03T12:51:55;26.30;48.50
66608;DHT22;53462;39.616;8.824;2022-11-03T12:54:21;26.20;48.10
66608;DHT22;53462;39.616;8.824;2022-11-03T12:56:47;26.40;48.60
66608;DHT22;53462;39.616;8.824;2022-11-03T12:59:13;26.30;48.90
66608;DHT22;53462;39.616;8.824;2022-11-03T13:01:39;26.40;48.50
66608;DHT22;53462;39.616;8.824;2022-11-03T13:04:05;26.00;49.00
66608;DHT22;53462;39.616;8.824;2022-11-03T13:06:31;26.40;48.20
66608;DHT22;53462;39.616;8.824;2022-11-03T13:08:57;26.10;48.90
66608;DHT22;53462;39.616;8.824;2022-11-03T13:11:23;26.00;48.60
66608;DHT22;53462;39.616;8.824;2022-11-03T13:14:08;26.30;48.70
66608;DHT22;53462;39.616;8.824;2022-11-03T13:16:34;26.20;48.40
66608;DHT22;53462;39.616;8.824;2022-11-03T13:19:00;26.00;48.30
66608;DHT22;53462;39.616;8.824;2022-11-03T13:21:26;26.00;49.30
66608;DHT22;53462;39.616;8.824;2022-11-03T13:23:52;26.00;49.70
66608;DHT22;53462;39.616;8.824;2022-11-03T13:26:18;26.00;50.20
66608;DHT22;53462;39.616;8.824;2022-11-03T13:28:44;25.90;50.40
66608;DHT22;53462;39.616;8.824;2022-11-03T13:31:10;26.20;50.10
66608;DHT22;53462;39.616;8.824;2022-11-03T13:33:37;26.20;52.20
66608;DHT22;53462;39.616;8.824;2022-11-03T13:36:04;26.20;52.30
66608;DHT22;53462;39.616;8.824;2022-11-03T13:38:30;26.10;52.80
66608;DHT22;53462;39.616;8.824;2022-11-03T13:40:56;25.90;53.70
66608;DHT22;53462;39.616;8.824;2022-11-03T13:43:21;25.70;54.90
66608;DHT22;53462;39.616;8.824;2022-11-03T13:45:47;25.50;55.50
66608;DHT22;53462;39.616;8.824;2022-11-03T13:48:13;25.20;55.40
66608;DHT22;53462;39.616;8.824;2022-11-03T13:50:44;25.30;55.30
66608;DHT22;53462;39.616;8.824;2022-11-03T13:53:10;25.10;55.90
66608;DHT22;53462;39.616;8.824;2022-11-03T13:55:36;25.30;56.80
66608;DHT22;53462;39.616;8.824;2022-11-03T13:58:02;25.10;57.80
66608;DHT22;53462;39.616;8.824;2022-11-03T14:00:28;25.50;56.90
66608;DHT22;53462;39.616;8.824;2022-11-03T14:02:54;25.50;55.30
66608;DHT22;53462;39.616;8.824;2022-11-03T14:05:20;25.30;55.80
66608;DHT22;53462;39.616;8.824;2022-11-03T14:07:46;25.10;58.40
66608;DHT22;53462;39.616;8.824;2022-11-03T14:10:12;25.00;58.40
66608;DHT22;53462;39.616;8.824;2022-11-03T14:12:38;25.00;58.30
66608;DHT22;53462;39.616;8.824;2022-11-03T14:15:08;24.80;58.50
66608;DHT22;53462;39.616;8.824;2022-11-03T14:17:36;24.80;58.90
66608;DHT22;53462;39.616;8.824;2022-11-03T14:20:04;24.80;59.20
66608;DHT22;53462;39.616;8.824;2022-11-03T14:22:31;24.80;58.80
66608;DHT22;53462;39.616;8.824;2022-11-03T14:24:57;24.60;59.00
66608;DHT22;53462;39.616;8.824;2022-11-03T14:27:23;24.60;58.90
66608;DHT22;53462;39.616;8.824;2022-11-03T14:29:49;24.40;59.30
66608;DHT22;53462;39.616;8.824;2022-11-03T14:32:16;24.40;60.10
66608;DHT22;53462;39.616;8.824;2022-11-03T14:34:42;24.20;60.40
66608;DHT22;53462;39.616;8.824;2022-11-03T14:37:08;24.30;60.70
66608;DHT22;53462;39.616;8.824;2022-11-03T14:39:36;24.20;61.50
66608;DHT22;53462;39.616;8.824;2022-11-03T14:42:08;24.20;61.70
66608;DHT22;53462;39.616;8.824;2022-11-03T14:44:39;23.90;62.60
66608;DHT22;53462;39.616;8.824;2022-11-03T14:47:08;23.90;62.90
66608;DHT22;53462;39.616;8.824;2022-11-03T14:49:34;23.80;63.40
66608;DHT22;53462;39.616;8.824;2022-11-03T14:52:01;23.70;63.40
66608;DHT22;53462;39.616;8.824;2022-11-03T14:54:29;23.70;63.50
66608;DHT22;53462;39.616;8.824;2022-11-03T14:56:55;23.70;63.30
66608;DHT22;53462;39.616;8.824;2022-11-03T14:59:22;23.80;63.20
66608;DHT22;53462;39.616;8.824;2022-11-03T15:01:49;23.80;63.20
66608;DHT22;53462;39.616;8.824;2022-11-03T15:04:16;23.60;64.00
66608;DHT22;53462;39.616;8.824;2022-11-03T15:06:42;23.40;65.00
66608;DHT22;53462;39.616;8.824;2022-11-03T15:09:09;23.30;64.60
66608;DHT22;53462;39.616;8.824;2022-11-03T15:11:35;23.30;65.00
66608;DHT22;53462;39.616;8.824;2022-11-03T15:14:02;23.30;64.90
66608;DHT22;53462;39.616;8.824;2022-11-03T15:16:28;23.30;65.00
66608;DHT22;53462;39.616;8.824;2022-11-03T15:18:54;23.20;65.40
66608;DHT22;53462;39.616;8.824;2022-11-03T15:21:20;23.20;66.20
66608;DHT22;53462;39.616;8.824;2022-11-03T15:23:46;23.00;67.00
66608;DHT22;53462;39.616;8.824;2022-11-03T15:26:12;22.90;67.30
66608;DHT22;53462;39.616;8.824;2022-11-03T15:28:38;22.90;67.60
66608;DHT22;53462;39.616;8.824;2022-11-03T15:31:05;22.80;67.70
66608;DHT22;53462;39.616;8.824;2022-11-03T15:33:31;22.70;67.50
66608;DHT22;53462;39.616;8.824;2022-11-03T15:35:57;22.60;67.60
66608;DHT22;53462;39.616;8.824;2022-11-03T15:38:23;22.50;68.10
66608;DHT22;53462;39.616;8.824;2022-11-03T15:40:49;22.50;68.80
66608;DHT22;53462;39.616;8.824;2022-11-03T15:43:15;22.40;69.30
66608;DHT22;53462;39.616;8.824;2022-11-03T15:45:41;22.30;69.90
66608;DHT22;53462;39.616;8.824;2022-11-03T15:48:07;22.30;70.10
66608;DHT22;53462;39.616;8.824;2022-11-03T15:50:33;22.20;70.40
66608;DHT22;53462;39.616;8.824;2022-11-03T15:52:59;22.10;70.90
66608;DHT22;53462;39.616;8.824;2022-11-03T15:55:25;22.00;71.20
66608;DHT22;53462;39.616;8.824;2022-11-03T15:57:51;21.90;71.50
66608;DHT22;53462;39.616;8.824;2022-11-03T16:00:17;21.80;71.90
66608;DHT22;53462;39.616;8.824;2022-11-03T16:02:46;21.80;72.40
66608;DHT22;53462;39.616;8.824;2022-11-03T16:05:13;21.70;73.10
66608;DHT22;53462;39.616;8.824;2022-11-03T16:07:39;21.60;73.90
66608;DHT22;53462;39.616;8.824;2022-11-03T16:10:05;21.50;74.80
66608;DHT22;53462;39.616;8.824;2022-11-03T16:12:31;21.40;75.70
66608;DHT22;53462;39.616;8.824;2022-11-03T16:14:57;21.30;76.60
66608;DHT22;53462;39.616;8.824;2022-11-03T16:17:23;21.30;77.40
66608;DHT22;53462;39.616;8.824;2022-11-03T16:19:49;21.20;78.00
66608;DHT22;53462;39.616;8.824;2022-11-03T16:22:15;21.20;78.20
66608;DHT22;53462;39.616;8.824;2022-11-03T16:24:42;21.10;78.60
66608;DHT22;53462;39.616;8.824;2022-11-03T16:27:11;21.10;78.50
66608;DHT22;53462;39.616;8.824;2022-11-03T16:29:37;21.00;79.50
66608;DHT22;53462;39.616;8.824;2022-11-03T16:32:02;21.00;80.10
66608;DHT22;53462;39.616;8.824;2022-11-03T16:34:28;20.80;81.30
66608;DHT22;53462;39.616;8.824;2022-11-03T16:36:54;20.80;81.70
66608;DHT22;53462;39.616;8.824;2022-11-03T16:39:21;20.80;82.30
66608;DHT22;53462;39.616;8.824;2022-11-03T16:41:47;20.70;82.80
66608;DHT22;53462;39.616;8.824;2022-11-03T16:44:13;20.80;82.90
66608;DHT22;53462;39.616;8.824;2022-11-03T16:46:39;20.70;83.30
66608;DHT22;53462;39.616;8.824;2022-11-03T16:49:05;20.70;83.50
66608;DHT22;53462;39.616;8.824;2022-11-03T16:51:31;20.60;83.60
66608;DHT22;53462;39.616;8.824;2022-11-03T16:53:56;20.60;83.00